Time;durP1;ratioP1;P1;durP2;ratioP2;P2;SDS_P1;SDS_P2;PMS_P1;PMS_P2;Temp;Humidity;BMP_temperature;BMP_pressure;BME280_temperature;BME280_humidity;BME280_pressure;Samples;Min_cycle;Max_cycle;Signal;HPM_P1;HPM_P2
2022/01/10 00:00:44;;;;;;;;;77.00;62.40;;;;;4.18;43.91;97998.91;6101910;28;97946;-64
2022/01/10 00:03:48;;;;;;;;;76.75;62.25;;;;;4.10;44.18;98000.97;6087751;28;96635;-65
2022/01/10 00:06:51;;;;;;;;;75.50;60.00;;;;;4.06;43.94;97999.69;6087403;28;97932;-66
2022/01/10 00:09:55;;;;;;;;;73.00;59.00;;;;;4.06;44.23;98015.69;6087044;28;97497;-66
2022/01/10 00:12:59;;;;;;;;;76.50;64.00;;;;;4.00;43.96;98021.84;6088466;28;97124;-65
2022/01/10 00:16:03;;;;;;;;;77.00;61.25;;;;;3.95;44.51;98025.13;6092452;28;96909;-64
2022/01/10 00:19:06;;;;;;;;;73.00;59.00;;;;;3.98;44.09;98027.38;6092082;28;97018;-64
2022/01/10 00:22:11;;;;;;;;;73.00;60.20;;;;;3.93;44.13;98027.16;6092773;28;96526;-66
2022/01/10 00:25:16;;;;;;;;;75.00;60.00;;;;;3.90;44.46;98035.56;6092616;28;97965;-65
2022/01/10 00:28:20;;;;;;;;;77.67;63.00;;;;;3.92;44.50;98041.50;6091638;28;97369;-65
2022/01/10 00:31:24;;;;;;;;;75.20;60.80;;;;;3.96;44.56;98047.28;6090754;28;97185;-65
2022/01/10 00:34:28;;;;;;;;;75.50;56.25;;;;;3.89;44.32;98052.59;6091756;28;98511;-65
2022/01/10 00:37:31;;;;;;;;;73.25;57.00;;;;;3.87;44.78;98042.09;6092633;28;98064;-65
2022/01/10 00:40:35;;;;;;;;;69.00;56.00;;;;;3.83;44.83;98043.53;6090756;28;99626;-66
2022/01/10 00:43:45;;;;;;;;;75.00;59.00;;;;;3.88;44.46;98053.59;6092503;28;96805;-66
2022/01/10 00:46:53;;;;;;;;;73.00;57.00;;;;;3.91;44.36;98048.69;6075412;28;97935;-64
2022/01/10 00:49:57;;;;;;;;;69.00;52.80;;;;;3.84;44.45;98061.19;6091056;28;97427;-65
2022/01/10 00:53:01;;;;;;;;;74.60;58.00;;;;;3.87;44.31;98059.94;6088879;28;97482;-64
2022/01/10 00:56:08;;;;;;;;;69.00;52.00;;;;;3.88;44.07;98062.44;6092253;28;97355;-65
2022/01/10 00:59:12;;;;;;;;;67.00;52.50;;;;;3.84;44.43;98068.34;6091772;28;98066;-65
2022/01/10 01:02:16;;;;;;;;;66.80;52.20;;;;;3.81;44.47;98074.88;6090657;28;98324;-64
2022/01/10 01:05:22;;;;;;;;;72.00;54.80;;;;;3.72;44.43;98062.75;6092169;28;96829;-66
2022/01/10 01:08:28;;;;;;;;;69.00;53.40;;;;;3.69;44.39;98065.84;6092315;28;97487;-65
2022/01/10 01:11:56;;;;;;;;;69.60;53.40;;;;;3.67;44.60;98077.69;6092196;28;96695;-65
2022/01/10 01:15:17;;;;;;;;;71.00;53.00;;;;;3.60;44.75;98077.69;6092440;28;97398;-66
2022/01/10 01:18:42;;;;;;;;;73.00;57.00;;;;;3.49;44.76;98071.06;6091025;28;96338;-65
2022/01/10 01:25:07;;;;;;;;;71.80;54.80;;;;;3.32;45.47;98077.69;6088023;28;97019;-66
2022/01/10 01:28:10;;;;;;;;;71.75;54.50;;;;;3.31;45.31;98077.91;6101203;28;97670;-66
2022/01/10 01:31:15;;;;;;;;;72.60;55.40;;;;;3.25;45.41;98090.16;6089581;28;98378;-65
2022/01/10 01:34:20;;;;;;;;;75.00;58.50;;;;;3.25;45.21;98095.50;6090543;28;97634;-65
2022/01/10 01:37:26;;;;;;;;;72.50;56.00;;;;;3.24;45.15;98090.34;6090012;28;97028;-64
2022/01/10 01:40:32;;;;;;;;;74.00;58.00;;;;;3.25;45.87;98090.16;6091209;28;96402;-65
2022/01/10 01:43:35;;;;;;;;;72.00;57.00;;;;;3.23;45.71;98102.03;6089807;28;99664;-65
2022/01/10 01:46:42;;;;;;;;;73.80;57.20;;;;;3.26;45.65;98102.47;6088205;28;96765;-65
2022/01/10 01:49:46;;;;;;;;;73.00;57.00;;;;;3.17;45.96;98103.66;6088846;28;96748;-64
2022/01/10 01:52:50;;;;;;;;;73.80;57.80;;;;;3.19;45.71;98111.41;6090319;28;96859;-64
2022/01/10 01:55:53;;;;;;;;;73.20;55.20;;;;;3.17;45.68;98103.66;6087999;28;97576;-65
2022/01/10 01:58:57;;;;;;;;;73.60;55.00;;;;;3.12;46.00;98110.56;6088582;28;97977;-65
2022/01/10 02:02:02;;;;;;;;;71.00;56.33;;;;;3.11;45.74;98104.41;6089876;28;96941;-64
2022/01/10 02:05:07;;;;;;;;;71.00;55.00;;;;;3.17;45.90;98108.97;6090405;28;97060;-64
2022/01/10 02:08:11;;;;;;;;;72.00;58.00;;;;;3.15;45.79;98107.50;6090945;28;96970;-65
2022/01/10 02:11:15;;;;;;;;;72.20;57.00;;;;;3.03;45.57;98107.19;6089224;28;96919;-66
2022/01/10 02:14:19;;;;;;;;;71.75;55.75;;;;;3.00;45.70;98118.25;6089218;28;96681;-64
2022/01/10 02:17:33;;;;;;;;;72.20;56.40;;;;;2.89;45.63;98092.97;6073823;28;97719;-66
2022/01/10 02:20:46;;;;;;;;;71.60;54.00;;;;;2.99;45.64;98124.56;6066288;28;97502;-65
2022/01/10 02:23:51;;;;;;;;;71.00;54.75;;;;;2.97;46.02;98121.31;6102533;28;97779;-65
2022/01/10 02:27:00;;;;;;;;;70.60;55.60;;;;;3.00;45.93;98131.56;6089745;28;97024;-64
2022/01/10 02:30:04;;;;;;;;;70.60;55.00;;;;;2.97;45.57;98135.44;6090105;28;96719;-66
2022/01/10 02:33:08;;;;;;;;;72.20;55.00;;;;;3.00;45.61;98140.38;6089419;28;97392;-65
2022/01/10 02:36:19;;;;;;;;;69.75;55.75;;;;;2.99;45.75;98143.22;6090831;28;97483;-65
2022/01/10 02:39:22;;;;;;;;;72.00;55.80;;;;;2.95;45.98;98145.44;6066560;28;96741;-64
2022/01/10 02:42:26;;;;;;;;;71.00;55.60;;;;;2.97;45.61;98146.09;6103999;28;97518;-65
2022/01/10 02:45:29;;;;;;;;;70.00;55.00;;;;;2.96;45.51;98149.75;6089624;28;97982;-65
2022/01/10 02:48:33;;;;;;;;;72.00;57.00;;;;;2.93;45.82;98154.66;6070672;28;96836;-66
2022/01/10 02:51:38;;;;;;;;;72.00;53.00;;;;;2.88;45.65;98152.53;6090196;28;97116;-65
2022/01/10 02:54:42;;;;;;;;;71.00;55.00;;;;;2.88;45.51;98157.06;6089448;28;97495;-64
2022/01/10 02:57:52;;;;;;;;;71.75;55.00;;;;;2.82;45.99;98163.16;6088462;28;96685;-65
2022/01/10 03:00:55;;;;;;;;;74.00;57.00;;;;;2.78;46.02;98161.88;6089037;28;98109;-65
2022/01/10 03:03:59;;;;;;;;;69.80;54.20;;;;;2.74;46.27;98163.25;6087625;28;98341;-64
2022/01/10 03:07:05;;;;;;;;;69.00;52.00;;;;;2.68;45.73;98170.19;6105103;28;97057;-65
2022/01/10 03:10:09;;;;;;;;;71.25;53.50;;;;;2.70;45.70;98175.28;6089292;28;97180;-64
2022/01/10 03:13:13;;;;;;;;;68.20;52.00;;;;;2.68;46.16;98180.81;6097107;28;98170;-64
2022/01/10 03:16:17;;;;;;;;;69.80;52.80;;;;;2.64;45.88;98189.38;6072254;28;97198;-64
2022/01/10 03:19:20;;;;;;;;;71.20;52.80;;;;;2.61;45.72;98190.56;6102155;28;96964;-64
2022/01/10 03:22:26;;;;;;;;;67.20;51.20;;;;;2.65;45.74;98188.34;6087378;28;98155;-64
2022/01/10 03:25:30;;;;;;;;;68.00;52.00;;;;;2.68;45.84;98194.13;6103832;28;96781;-64
2022/01/10 03:28:36;;;;;;;;;67.00;51.00;;;;;2.70;46.16;98189.41;6087915;28;97264;-65
2022/01/10 03:31:40;;;;;;;;;68.00;52.00;;;;;2.79;45.65;98198.09;6071400;28;97684;-65
2022/01/10 03:34:43;;;;;;;;;70.00;52.60;;;;;2.82;45.31;98200.41;6087397;28;99719;-64
2022/01/10 03:37:49;;;;;;;;;68.00;52.00;;;;;2.75;44.91;98196.84;6087894;28;97817;-64
2022/01/10 03:40:54;;;;;;;;;69.40;53.00;;;;;2.73;45.17;98199.72;6088687;28;96906;-64
2022/01/10 03:43:59;;;;;;;;;68.25;53.00;;;;;2.74;45.69;98208.50;6086658;28;97993;-65
2022/01/10 03:47:05;;;;;;;;;67.00;51.20;;;;;2.69;45.42;98208.25;6070477;28;99607;-65
2022/01/10 03:50:10;;;;;;;;;67.60;51.80;;;;;2.71;45.43;98212.38;6091425;28;97247;-65
2022/01/10 03:53:15;;;;;;;;;69.50;52.00;;;;;2.70;45.56;98217.88;6094435;28;97462;-64
2022/01/10 03:56:19;;;;;;;;;69.50;52.25;;;;;2.68;45.54;98227.91;6079594;28;97127;-65
2022/01/10 03:59:23;;;;;;;;;69.75;53.00;;;;;2.68;45.38;98226.06;6095388;28;96426;-64
2022/01/10 04:02:29;;;;;;;;;68.00;52.20;;;;;2.60;45.75;98234.13;6095120;28;97021;-64
2022/01/10 04:05:34;;;;;;;;;72.00;53.60;;;;;2.64;46.04;98240.72;6096115;28;96835;-65
2022/01/10 04:08:39;;;;;;;;;74.00;55.75;;;;;2.66;46.23;98248.53;6096856;28;97181;-64
2022/01/10 04:11:43;;;;;;;;;73.20;56.40;;;;;2.61;46.25;98251.75;6112227;28;96974;-64
2022/01/10 04:14:46;;;;;;;;;71.40;55.00;;;;;2.53;46.70;98254.53;6095753;28;97395;-64
2022/01/10 04:17:54;;;;;;;;;70.20;54.00;;;;;2.41;46.97;98261.31;6091446;28;96716;-65
2022/01/10 04:20:58;;;;;;;;;72.50;57.00;;;;;2.52;46.77;98263.53;6111753;28;97417;-64
2022/01/10 04:24:04;;;;;;;;;68.60;53.00;;;;;2.52;46.74;98255.53;6093760;28;96990;-63
2022/01/10 04:27:07;;;;;;;;;70.50;53.50;;;;;2.45;46.66;98263.44;6078949;28;97792;-63
2022/01/10 04:30:12;;;;;;;;;70.25;55.00;;;;;2.53;46.08;98273.16;6078682;28;96624;-64
2022/01/10 04:33:18;;;;;;;;;68.25;53.00;;;;;2.45;46.07;98276.72;6095959;28;97480;-64
2022/01/10 04:36:23;;;;;;;;;71.80;56.40;;;;;2.45;46.28;98281.22;6094699;28;97303;-64
2022/01/10 04:39:28;;;;;;;;;77.00;56.40;;;;;2.42;46.04;98289.59;6096168;28;98279;-65
2022/01/10 04:42:31;;;;;;;;;72.00;57.00;;;;;2.35;46.44;98284.16;6095365;28;97595;-64
2022/01/10 04:45:34;;;;;;;;;73.20;56.40;;;;;2.36;46.49;98304.44;6078174;28;96824;-64
2022/01/10 04:48:38;;;;;;;;;73.00;55.20;;;;;2.14;47.02;98300.06;6086875;28;97014;-65
2022/01/10 04:51:41;;;;;;;;;74.80;57.40;;;;;2.16;46.84;98298.84;6087785;28;96746;-64
2022/01/10 04:54:46;;;;;;;;;73.00;53.00;;;;;2.13;46.81;98303.72;6121344;28;97407;-65
2022/01/10 04:57:49;;;;;;;;;74.20;57.00;;;;;2.12;46.84;98323.31;6127419;28;97422;-63
2022/01/10 05:00:55;;;;;;;;;72.00;59.00;;;;;2.10;46.91;98323.50;6095918;28;96944;-65
2022/01/10 05:04:01;;;;;;;;;74.80;57.80;;;;;2.09;46.82;98323.69;6091840;28;97499;-65
2022/01/10 05:07:04;;;;;;;;;72.80;56.40;;;;;2.10;46.89;98331.47;6098142;28;97175;-64
2022/01/10 05:10:11;;;;;;;;;72.00;57.00;;;;;2.06;46.83;98332.03;6099064;28;97646;-64
2022/01/10 05:13:17;;;;;;;;;73.25;58.25;;;;;1.93;46.81;98322.03;6084051;28;96534;-65
2022/01/10 05:16:20;;;;;;;;;72.00;55.75;;;;;2.14;47.05;98347.91;6099632;28;96622;-65
2022/01/10 05:19:24;;;;;;;;;73.00;57.00;;;;;2.13;46.88;98347.09;6099438;28;96726;-65
2022/01/10 05:22:32;;;;;;;;;72.20;57.60;;;;;2.05;47.50;98347.13;6083113;28;96977;-65
2022/01/10 05:25:40;;;;;;;;;73.00;57.00;;;;;2.08;47.14;98353.94;6072886;28;97442;-66
2022/01/10 05:28:45;;;;;;;;;72.20;55.00;;;;;2.05;47.49;98356.97;6089094;28;97069;-64
2022/01/10 05:31:49;;;;;;;;;72.80;55.00;;;;;2.09;47.50;98360.91;6087853;28;97284;-64
2022/01/10 05:34:59;;;;;;;;;72.80;56.60;;;;;2.13;47.29;98362.22;6081908;28;98558;-65
2022/01/10 05:38:03;;;;;;;;;70.20;53.40;;;;;2.15;47.13;98370.84;6090180;28;96773;-65
2022/01/10 05:41:09;;;;;;;;;71.00;54.00;;;;;2.08;47.65;98383.19;6090049;28;97169;-65
2022/01/10 05:44:13;;;;;;;;;69.80;54.00;;;;;2.13;47.59;98386.13;6090097;28;97059;-66
2022/01/10 05:47:17;;;;;;;;;71.00;54.60;;;;;2.15;47.17;98389.47;6085113;28;97557;-65
2022/01/10 05:50:32;;;;;;;;;71.20;55.40;;;;;2.20;47.13;98402.22;6090097;28;96491;-64
2022/01/10 05:53:38;;;;;;;;;72.40;54.20;;;;;2.17;47.20;98408.69;6090515;28;96662;-65
2022/01/10 05:56:44;;;;;;;;;72.75;55.75;;;;;2.16;46.92;98425.66;6081166;28;96816;-65
2022/01/10 05:59:47;;;;;;;;;70.40;52.40;;;;;2.16;46.78;98433.63;6091228;28;96531;-64
2022/01/10 06:02:51;;;;;;;;;69.60;52.60;;;;;2.12;47.04;98441.16;6082565;28;97543;-65
2022/01/10 06:06:04;;;;;;;;;70.00;54.20;;;;;2.11;46.50;98446.63;6081171;28;97507;-64
2022/01/10 06:09:07;;;;;;;;;71.00;56.50;;;;;2.12;46.35;98457.09;6089103;28;97277;-67
2022/01/10 06:12:13;;;;;;;;;69.60;53.40;;;;;2.16;46.45;98468.19;6100481;28;97664;-65
2022/01/10 06:15:16;;;;;;;;;70.80;54.20;;;;;2.19;46.23;98467.88;6088432;28;97305;-67
2022/01/10 06:18:20;;;;;;;;;70.00;53.00;;;;;2.13;46.60;98484.53;6086406;28;97307;-65
2022/01/10 06:21:24;;;;;;;;;72.00;55.00;;;;;2.16;46.46;98494.78;6088616;28;97440;-65
2022/01/10 06:24:28;;;;;;;;;71.60;53.60;;;;;2.18;46.28;98503.44;6072149;28;98348;-65
2022/01/10 06:27:34;;;;;;;;;69.00;52.40;;;;;2.16;46.28;98500.13;6100698;28;97537;-67
2022/01/10 06:30:37;;;;;;;;;67.00;51.60;;;;;2.23;46.11;98508.22;6088324;28;96717;-64
2022/01/10 06:33:42;;;;;;;;;67.00;51.00;;;;;2.25;46.59;98512.34;6068979;28;97826;-66
2022/01/10 06:36:46;;;;;;;;;68.00;51.00;;;;;2.29;46.61;98521.63;6070674;28;97892;-66
2022/01/10 06:39:51;;;;;;;;;66.40;51.00;;;;;2.32;46.75;98533.75;6079855;28;97893;-65
2022/01/10 06:42:56;;;;;;;;;65.00;50.00;;;;;2.32;46.34;98544.38;6086636;28;97237;-63
2022/01/10 06:46:01;;;;;;;;;63.80;49.40;;;;;2.43;46.54;98549.28;6104131;28;96659;-65
2022/01/10 06:49:05;;;;;;;;;62.50;49.25;;;;;2.46;45.91;98554.25;6098618;28;97340;-65
2022/01/10 06:52:08;;;;;;;;;63.50;49.00;;;;;2.46;46.16;98560.41;6086934;28;98467;-64
2022/01/10 06:55:13;;;;;;;;;65.40;49.00;;;;;2.37;46.17;98569.44;6104235;28;97548;-65
2022/01/10 06:58:19;;;;;;;;;63.50;49.00;;;;;2.35;46.42;98575.94;6071888;28;99667;-66
2022/01/10 07:01:22;;;;;;;;;65.00;49.40;;;;;2.32;46.08;98582.44;6103891;28;96668;-66
2022/01/10 07:04:28;;;;;;;;;63.50;49.25;;;;;2.23;46.14;98594.16;6104651;28;97524;-66
2022/01/10 07:07:34;;;;;;;;;66.00;49.00;;;;;2.09;46.91;98603.72;6088376;28;96898;-68
2022/01/10 07:10:47;;;;;;;;;63.60;47.40;;;;;2.10;46.64;98597.38;6089892;28;97292;-67
2022/01/10 07:13:52;;;;;;;;;63.50;50.00;;;;;2.21;46.43;98613.94;6072445;28;98176;-65
2022/01/10 07:16:57;;;;;;;;;66.80;50.00;;;;;2.29;45.98;98617.41;6103896;28;97251;-66
2022/01/10 07:20:01;;;;;;;;;67.00;51.00;;;;;2.24;46.43;98616.25;6101097;28;97272;-67
2022/01/10 07:23:10;;;;;;;;;66.50;51.50;;;;;2.20;46.35;98626.41;6102392;28;97426;-67
2022/01/10 07:26:13;;;;;;;;;64.00;50.00;;;;;2.01;46.73;98642.78;6087147;28;97060;-67
2022/01/10 07:29:17;;;;;;;;;65.00;50.40;;;;;2.03;46.62;98652.25;6086579;28;97179;-64
2022/01/10 07:32:21;;;;;;;;;67.40;51.40;;;;;1.92;47.16;98646.50;6099240;28;96575;-63
2022/01/10 07:35:24;;;;;;;;;70.50;53.00;;;;;1.94;47.14;98663.09;6104424;28;97897;-67
2022/01/10 07:38:28;;;;;;;;;70.00;53.00;;;;;2.01;47.14;98664.06;6102245;28;97208;-66
2022/01/10 07:41:32;;;;;;;;;64.40;49.60;;;;;1.69;47.95;98657.03;6097154;28;97406;-66
2022/01/10 07:44:36;;;;;;;;;69.00;53.00;;;;;1.68;48.16;98672.16;6111975;28;97923;-65
2022/01/10 07:47:40;;;;;;;;;70.00;53.00;;;;;1.58;48.92;98684.81;6058666;28;97343;-66
2022/01/10 07:50:43;;;;;;;;;70.00;53.00;;;;;1.49;48.85;98687.66;6072880;28;97756;-66
2022/01/10 07:53:47;;;;;;;;;70.67;53.67;;;;;1.57;49.19;98692.94;6087988;28;99918;-66
2022/01/10 07:56:50;;;;;;;;;67.50;51.00;;;;;1.47;49.53;98690.47;6073164;28;97861;-67
2022/01/10 07:59:55;;;;;;;;;67.20;51.00;;;;;1.48;49.33;98694.78;6085867;28;96724;-65
2022/01/10 08:02:58;;;;;;;;;71.00;52.00;;;;;1.46;49.30;98701.28;6076238;28;96911;-66
2022/01/10 08:06:01;;;;;;;;;63.00;48.60;;;;;1.35;49.81;98705.09;6098388;28;97488;-67
2022/01/10 08:09:06;;;;;;;;;65.00;49.00;;;;;1.58;50.12;98713.19;6090721;28;98502;-65
2022/01/10 08:12:10;;;;;;;;;63.75;49.75;;;;;1.78;49.35;98716.31;6099780;28;97543;-68
2022/01/10 08:15:15;;;;;;;;;65.40;50.00;;;;;1.91;49.33;98735.22;6085011;28;97489;-66
2022/01/10 08:18:18;;;;;;;;;64.00;49.40;;;;;1.98;48.94;98729.06;6099740;28;96521;-66
2022/01/10 08:21:22;;;;;;;;;65.00;51.00;;;;;2.08;48.87;98735.00;6089012;28;97138;-67
2022/01/10 08:24:25;;;;;;;;;62.00;48.00;;;;;2.22;48.94;98749.41;6085959;28;97457;-67
2022/01/10 08:27:29;;;;;;;;;65.80;48.00;;;;;2.38;49.30;98757.34;6103035;28;97268;-64
2022/01/10 08:30:34;;;;;;;;;58.67;45.00;;;;;2.46;49.27;98757.28;6088685;28;97398;-65
2022/01/10 08:33:39;;;;;;;;;65.00;49.00;;;;;2.58;48.82;98766.56;6089931;28;97378;-65
2022/01/10 08:36:42;;;;;;;;;61.00;48.00;;;;;2.69;48.51;98767.97;6091118;28;97472;-67
2022/01/10 08:39:51;;;;;;;;;65.50;50.75;;;;;2.67;48.29;98745.22;6106483;28;97417;-68
2022/01/10 08:42:54;;;;;;;;;63.40;48.00;;;;;2.74;49.04;98776.28;6089627;28;99503;-64
2022/01/10 08:45:59;;;;;;;;;67.00;49.00;;;;;2.89;48.15;98771.03;6091063;28;98540;-69
2022/01/10 08:49:03;;;;;;;;;61.80;46.80;;;;;2.92;47.77;98744.06;6091411;28;97068;-67
2022/01/10 08:52:08;;;;;;;;;60.00;44.00;;;;;3.23;47.52;98782.13;6091215;28;97063;-66
2022/01/10 08:55:12;;;;;;;;;54.50;43.50;;;;;3.24;47.72;98786.44;6091277;28;98021;-67
2022/01/10 08:58:15;;;;;;;;;56.25;43.00;;;;;3.30;47.54;98791.06;6091376;28;97469;-65
2022/01/10 09:01:21;;;;;;;;;57.20;44.00;;;;;3.14;47.21;98785.84;6091127;28;96983;-67
2022/01/10 09:04:25;;;;;;;;;60.00;45.00;;;;;3.20;47.75;98803.78;6073033;28;99436;-68
2022/01/10 09:07:32;;;;;;;;;57.00;45.00;;;;;3.15;47.89;98800.00;6080665;28;98437;-67
2022/01/10 09:10:35;;;;;;;;;59.60;45.20;;;;;3.28;47.20;98801.06;6106370;28;97468;-67
2022/01/10 09:13:38;;;;;;;;;56.80;44.80;;;;;3.36;47.28;98801.03;6090624;28;99036;-67
2022/01/10 09:16:44;;;;;;;;;59.00;46.00;;;;;3.49;47.41;98808.41;6090231;28;97139;-67
2022/01/10 09:19:47;;;;;;;;;57.40;45.00;;;;;3.36;47.09;98800.19;6089164;28;99766;-65
2022/01/10 09:22:51;;;;;;;;;60.67;46.00;;;;;3.55;47.49;98809.53;6089858;28;97496;-67
2022/01/10 09:25:54;;;;;;;;;61.80;46.00;;;;;3.75;47.32;98810.69;6073379;28;96770;-67
2022/01/10 09:28:59;;;;;;;;;62.00;47.50;;;;;4.04;47.17;98817.94;6090195;28;97501;-67
2022/01/10 09:32:05;;;;;;;;;59.60;44.00;;;;;4.21;47.22;98814.06;6091865;28;97302;-65
2022/01/10 09:35:09;;;;;;;;;56.75;44.00;;;;;4.35;46.92;98816.75;6090406;28;97085;-66
2022/01/10 09:38:12;;;;;;;;;56.00;43.40;;;;;4.43;46.28;98817.69;6089366;28;98081;-66
2022/01/10 09:41:16;;;;;;;;;56.50;44.00;;;;;4.29;46.39;98809.50;6092281;28;96619;-66
2022/01/10 09:44:20;;;;;;;;;55.00;43.00;;;;;4.34;46.36;98812.44;6089025;28;96986;-67
2022/01/10 09:47:24;;;;;;;;;56.80;42.80;;;;;4.24;47.09;98824.41;6072583;28;98560;-66
2022/01/10 09:50:28;;;;;;;;;54.75;44.00;;;;;4.31;47.09;98822.63;6090523;28;97515;-67
2022/01/10 09:53:31;;;;;;;;;55.60;44.60;;;;;4.48;47.05;98826.78;6089912;28;97389;-64
2022/01/10 09:56:35;;;;;;;;;59.50;46.00;;;;;4.60;46.63;98835.16;6091384;28;96436;-65
2022/01/10 09:59:40;;;;;;;;;57.00;44.50;;;;;4.71;46.51;98832.84;6090645;28;96651;-67
2022/01/10 10:02:50;;;;;;;;;61.60;46.40;;;;;4.92;45.96;98836.59;6072296;28;96924;-67
2022/01/10 10:05:53;;;;;;;;;62.80;47.20;;;;;5.13;45.36;98836.66;6088307;28;96762;-70
2022/01/10 10:08:59;;;;;;;;;60.25;45.50;;;;;5.19;45.16;98846.59;6090917;28;96554;-65
2022/01/10 10:12:04;;;;;;;;;61.00;47.00;;;;;5.23;44.88;98846.00;6091222;28;97531;-66
2022/01/10 10:15:09;;;;;;;;;60.00;46.00;;;;;5.29;45.36;98852.44;6088861;28;97399;-66
2022/01/10 10:18:15;;;;;;;;;59.00;46.00;;;;;5.33;45.03;98855.56;6080476;28;96983;-66
2022/01/10 10:21:22;;;;;;;;;59.50;45.00;;;;;5.33;44.78;98864.41;6089104;28;97269;-68
2022/01/10 10:24:26;;;;;;;;;58.20;45.00;;;;;5.38;44.93;98858.50;6074289;28;98404;-65
2022/01/10 10:27:36;;;;;;;;;58.00;45.00;;;;;5.40;44.72;98865.34;6088207;28;97500;-67
2022/01/10 10:30:49;;;;;;;;;55.40;43.00;;;;;5.42;45.12;98871.34;6088616;28;96938;-66
2022/01/10 10:33:54;;;;;;;;;55.00;42.50;;;;;5.55;45.26;98874.13;6075008;28;97785;-65
2022/01/10 10:37:04;;;;;;;;;54.60;42.60;;;;;5.61;44.84;98864.53;6087521;28;98800;-65
2022/01/10 10:40:10;;;;;;;;;58.00;45.20;;;;;5.78;44.53;98879.28;6087108;28;97406;-66
2022/01/10 10:43:14;;;;;;;;;53.00;41.60;;;;;5.70;44.39;98867.91;6103937;28;97053;-65
2022/01/10 10:46:18;;;;;;;;;57.00;44.00;;;;;5.75;44.68;98879.69;6090110;28;96611;-65
2022/01/10 10:49:31;;;;;;;;;53.50;43.00;;;;;5.94;44.39;98878.25;6088970;28;96591;-66
2022/01/10 10:52:36;;;;;;;;;58.50;43.00;;;;;5.92;44.37;98875.75;6090361;28;97537;-64
2022/01/10 10:55:41;;;;;;;;;58.00;44.00;;;;;6.01;44.42;98889.84;6104605;28;97084;-65
2022/01/10 10:58:44;;;;;;;;;55.60;43.00;;;;;6.08;43.82;98896.06;6088223;28;97513;-65
2022/01/10 11:01:47;;;;;;;;;52.50;42.00;;;;;5.97;44.15;98896.56;6079746;28;96876;-66
2022/01/10 11:04:52;;;;;;;;;54.00;42.00;;;;;5.87;44.39;98907.59;6088729;28;96802;-66
2022/01/10 11:07:56;;;;;;;;;54.60;42.00;;;;;5.90;44.28;98912.59;6089661;28;97790;-66
2022/01/10 11:11:00;;;;;;;;;52.25;42.00;;;;;5.94;44.13;98910.34;6089608;28;97411;-62
2022/01/10 11:14:05;;;;;;;;;55.25;44.00;;;;;5.96;44.25;98911.81;6088583;28;97416;-65
2022/01/10 11:17:17;;;;;;;;;57.50;45.00;;;;;5.96;44.33;98909.13;6089596;28;97484;-66
2022/01/10 11:20:25;;;;;;;;;55.25;43.00;;;;;5.95;44.46;98915.53;6090149;28;97449;-64
2022/01/10 11:23:28;;;;;;;;;56.00;44.00;;;;;5.99;44.36;98930.19;6087829;28;96947;-65
2022/01/10 11:26:38;;;;;;;;;55.00;42.60;;;;;6.02;44.15;98923.59;6087713;28;99557;-65
2022/01/10 11:29:43;;;;;;;;;52.60;42.00;;;;;5.94;44.29;98924.56;6088745;28;97879;-65
2022/01/10 11:32:54;;;;;;;;;52.50;41.00;;;;;5.94;44.58;98926.41;6089694;28;97086;-63
2022/01/10 11:36:21;;;;;;;;;54.60;41.00;;;;;5.59;44.76;98912.84;6088709;28;97213;-66
2022/01/10 11:39:36;;;;;;;;;53.80;42.20;;;;;5.80;44.93;98941.47;6089561;28;97177;-63
2022/01/10 11:42:44;;;;;;;;;57.67;44.00;;;;;5.64;44.89;98936.34;6074801;28;96981;-65
2022/01/10 11:45:49;;;;;;;;;53.00;42.00;;;;;5.52;45.53;98948.56;6089256;28;97322;-64
2022/01/10 11:48:58;;;;;;;;;52.00;42.00;;;;;5.37;46.04;98959.28;6088602;28;97501;-64
2022/01/10 11:52:05;;;;;;;;;52.00;41.00;;;;;5.42;45.99;98967.59;6103295;28;98016;-65
2022/01/10 11:55:09;;;;;;;;;50.20;40.00;;;;;5.42;45.84;98969.44;6087699;28;97399;-65
2022/01/10 11:58:17;;;;;;;;;47.00;37.00;;;;;5.38;45.99;98971.63;6087588;28;98042;-65
2022/01/10 12:01:20;;;;;;;;;46.20;37.80;;;;;5.29;46.34;98972.75;6087563;28;97349;-64
2022/01/10 12:04:25;;;;;;;;;51.20;40.00;;;;;5.32;46.00;98974.22;6079081;28;97787;-64
2022/01/10 12:07:30;;;;;;;;;48.60;36.80;;;;;5.26;46.57;98974.97;6085534;28;96533;-66
2022/01/10 12:10:53;;;;;;;;;47.20;37.80;;;;;5.27;46.30;98977.47;6086524;28;97605;-65
2022/01/10 12:13:59;;;;;;;;;47.33;37.00;;;;;5.03;46.55;98959.88;6088304;28;97877;-66
2022/01/10 12:17:03;;;;;;;;;46.75;35.50;;;;;5.18;47.15;98981.25;6102776;28;96709;-63
2022/01/10 12:20:08;;;;;;;;;50.00;40.40;;;;;5.11;46.98;98964.28;6087829;28;96853;-66
2022/01/10 12:23:13;;;;;;;;;47.00;38.00;;;;;5.20;47.34;98988.06;6088578;28;96733;-66
2022/01/10 12:26:18;;;;;;;;;48.40;39.00;;;;;5.09;47.51;98985.00;6090838;28;97426;-66
2022/01/10 12:29:24;;;;;;;;;49.00;38.00;;;;;5.04;47.44;98990.91;6090696;28;97420;-65
2022/01/10 12:32:27;;;;;;;;;52.40;41.00;;;;;5.23;47.10;99002.88;6079951;28;96892;-64
2022/01/10 12:35:31;;;;;;;;;52.60;40.00;;;;;5.35;46.99;98998.75;6091035;28;98070;-66
2022/01/10 12:38:36;;;;;;;;;50.25;40.00;;;;;5.59;46.66;99002.94;6090875;28;97555;-67
2022/01/10 12:41:39;;;;;;;;;51.60;39.00;;;;;5.65;46.60;99011.06;6091107;28;96912;-66
2022/01/10 12:44:43;;;;;;;;;49.75;38.00;;;;;5.71;46.68;99019.34;6088453;28;96671;-67
2022/01/10 12:47:47;;;;;;;;;50.00;39.25;;;;;5.73;46.71;99034.19;6090647;28;97017;-67
2022/01/10 12:50:51;;;;;;;;;50.40;41.40;;;;;5.76;46.44;99028.47;6076611;28;96922;-67
2022/01/10 12:53:56;;;;;;;;;47.60;39.00;;;;;5.85;46.61;99045.25;6090437;28;96665;-69
2022/01/10 12:57:01;;;;;;;;;49.67;38.00;;;;;5.78;46.42;99037.13;6076235;28;99087;-66
2022/01/10 13:00:09;;;;;;;;;49.20;40.20;;;;;5.84;46.54;99059.63;6087818;28;97342;-69
2022/01/10 13:03:12;;;;;;;;;49.25;39.25;;;;;5.81;46.50;99057.34;6089687;28;97019;-67
2022/01/10 13:06:17;;;;;;;;;51.00;39.00;;;;;5.81;46.63;99068.88;6095652;28;97466;-67
2022/01/10 13:09:23;;;;;;;;;46.80;38.00;;;;;5.78;46.70;99076.44;6092993;28;98245;-69
2022/01/10 13:12:28;;;;;;;;;46.20;38.00;;;;;5.76;46.76;99084.66;6105634;28;97204;-66
2022/01/10 13:15:35;;;;;;;;;46.60;38.00;;;;;5.60;47.04;99090.19;6090044;28;98184;-68
2022/01/10 13:18:38;;;;;;;;;49.40;39.00;;;;;5.66;47.11;99098.31;6092049;28;97434;-67
2022/01/10 13:21:48;;;;;;;;;48.00;38.00;;;;;5.68;47.15;99096.28;6072312;28;97951;-66
2022/01/10 13:24:54;;;;;;;;;48.60;38.00;;;;;5.71;46.90;99100.44;6095922;28;97431;-65
2022/01/10 13:28:03;;;;;;;;;44.20;36.00;;;;;5.79;47.23;99108.34;6090250;28;96502;-65
2022/01/10 13:31:07;;;;;;;;;47.00;37.40;;;;;5.87;46.84;99116.31;6101157;28;97421;-66
2022/01/10 13:34:25;;;;;;;;;47.40;38.40;;;;;5.94;46.71;99117.22;6096202;28;97063;-65
2022/01/10 13:37:30;;;;;;;;;50.50;38.00;;;;;5.94;46.82;99124.41;6106251;28;96946;-65
2022/01/10 13:40:42;;;;;;;;;49.00;39.00;;;;;5.96;47.09;99117.06;6091200;28;97154;-64
2022/01/10 13:43:45;;;;;;;;;47.00;37.25;;;;;5.98;46.82;99133.72;6099569;28;97364;-64
2022/01/10 13:47:00;;;;;;;;;46.60;38.00;;;;;6.00;46.98;99131.72;6079766;28;98349;-66
2022/01/10 13:50:16;;;;;;;;;50.00;39.00;;;;;6.07;47.00;99135.28;6110670;28;96664;-64
2022/01/10 13:53:27;;;;;;;;;49.00;38.40;;;;;6.08;46.90;99150.34;6094294;28;96857;-66
2022/01/10 13:56:33;;;;;;;;;51.50;41.00;;;;;5.96;46.95;99155.31;6089883;28;96573;-66
2022/01/10 13:59:37;;;;;;;;;50.75;40.00;;;;;5.95;47.35;99159.03;6107062;28;97655;-66
2022/01/10 14:02:41;;;;;;;;;46.00;38.00;;;;;5.97;47.48;99158.81;6105928;28;96588;-66
2022/01/10 14:05:44;;;;;;;;;47.00;38.00;;;;;5.97;47.66;99166.84;6098565;28;96522;-65
2022/01/10 14:08:50;;;;;;;;;46.60;36.00;;;;;6.02;47.48;99183.19;6098640;28;97786;-65
2022/01/10 14:11:54;;;;;;;;;45.00;37.00;;;;;5.99;47.39;99192.44;6106912;28;97442;-66
2022/01/10 14:14:58;;;;;;;;;50.00;38.40;;;;;6.06;47.56;99195.19;6089509;28;97664;-65
2022/01/10 14:18:04;;;;;;;;;48.80;38.80;;;;;6.11;47.62;99203.50;6098805;28;97521;-67
2022/01/10 14:21:09;;;;;;;;;49.50;39.00;;;;;6.13;47.57;99209.50;6098576;28;96675;-66
2022/01/10 14:24:12;;;;;;;;;46.60;38.00;;;;;6.15;47.82;99212.00;6088912;28;98027;-66